Time;durP1;ratioP1;P1;durP2;ratioP2;P2;SDS_P1;SDS_P2;PMS_P1;PMS_P2;Temp;Humidity;BMP_temperature;BMP_pressure;BME280_temperature;BME280_humidity;BME280_pressure;Samples;Min_cycle;Max_cycle;Signal;HPM_P1;HPM_P2
2022/02/16 00:02:25;;;;;;;1.05;0.80;;;9.10;71.90;;;;;;5063465;28;20498;-74
2022/02/16 00:04:51;;;;;;;2.50;0.97;;;9.10;73.20;;;;;;5069765;28;20463;-74
2022/02/16 00:07:17;;;;;;;1.00;0.80;;;9.10;73.80;;;;;;5069597;28;20411;-74
2022/02/16 00:09:42;;;;;;;2.70;0.73;;;9.00;74.00;;;;;;5069921;28;20434;-74
2022/02/16 00:12:08;;;;;;;2.90;0.90;;;9.10;72.90;;;;;;5070011;28;20503;-74
2022/02/16 00:14:34;;;;;;;2.00;0.80;;;9.20;72.30;;;;;;5071116;28;20470;-74
2022/02/16 00:17:00;;;;;;;1.10;0.90;;;9.10;73.20;;;;;;5068960;28;20490;-75
2022/02/16 00:19:26;;;;;;;1.55;0.80;;;9.20;71.60;;;;;;5072730;28;20403;-74
2022/02/16 00:21:52;;;;;;;1.30;0.80;;;9.20;72.50;;;;;;5073108;28;20471;-74
2022/02/16 00:24:18;;;;;;;1.60;0.73;;;9.20;71.10;;;;;;5073780;28;20753;-74
2022/02/16 00:26:44;;;;;;;1.30;0.70;;;9.20;71.90;;;;;;5071797;28;20402;-74
2022/02/16 00:29:12;;;;;;;1.50;0.70;;;9.20;73.20;;;;;;5072921;28;20386;-74
2022/02/16 00:31:39;;;;;;;1.00;0.70;;;9.20;73.50;;;;;;5069446;28;20400;-74
2022/02/16 00:34:06;;;;;;;0.80;0.75;;;9.20;72.10;;;;;;5073722;28;20383;-73
2022/02/16 00:36:31;;;;;;;0.80;0.70;;;9.10;75.40;;;;;;5073043;28;20376;-74
2022/02/16 00:38:57;;;;;;;0.80;0.80;;;9.20;73.20;;;;;;5070696;28;20379;-73
2022/02/16 00:41:23;;;;;;;0.97;0.80;;;9.10;74.70;;;;;;5052827;28;20425;-74
2022/02/16 00:43:48;;;;;;;1.90;0.70;;;9.20;73.10;;;;;;5054795;28;20404;-73
2022/02/16 00:46:15;;;;;;;1.00;0.90;;;9.30;71.80;;;;;;5062399;28;20398;-72
2022/02/16 00:48:40;;;;;;;1.00;0.80;;;9.30;72.20;;;;;;5073009;28;20857;-75
2022/02/16 00:51:06;;;;;;;0.93;0.82;;;9.30;72.10;;;;;;5072801;28;20462;-74
2022/02/16 00:53:32;;;;;;;1.23;0.80;;;9.30;71.30;;;;;;5073366;28;20390;-74
2022/02/16 00:55:58;;;;;;;1.50;0.97;;;9.40;70.80;;;;;;5072150;28;20391;-75
2022/02/16 00:58:24;;;;;;;1.05;0.95;;;9.30;71.80;;;;;;5067778;28;20460;-72
2022/02/16 01:00:50;;;;;;;1.90;0.80;;;9.30;73.40;;;;;;5063488;28;20413;-73
2022/02/16 01:03:15;;;;;;;1.00;0.90;;;9.30;73.50;;;;;;5072618;28;20383;-74
2022/02/16 01:05:41;;;;;;;1.00;0.90;;;9.40;72.70;;;;;;5073750;28;20380;-74
2022/02/16 01:08:10;;;;;;;2.60;1.00;;;9.30;73.40;;;;;;5073173;28;20380;-73
2022/02/16 01:10:37;;;;;;;1.00;0.80;;;9.40;73.20;;;;;;5067106;28;20408;-74
2022/02/16 01:13:03;;;;;;;1.23;0.80;;;9.40;73.40;;;;;;5054506;28;20439;-73
2022/02/16 01:15:28;;;;;;;1.40;0.80;;;9.40;72.70;;;;;;5061353;28;20399;-75
2022/02/16 01:17:54;;;;;;;1.40;0.80;;;9.50;72.80;;;;;;5074874;28;20391;-74
2022/02/16 01:20:20;;;;;;;1.00;0.80;;;9.40;73.90;;;;;;5070065;28;20555;-74
2022/02/16 01:22:45;;;;;;;4.10;1.00;;;9.30;74.90;;;;;;5069027;28;20722;-74
2022/02/16 01:25:11;;;;;;;1.20;0.67;;;9.30;76.70;;;;;;5071472;28;20474;-73
2022/02/16 01:27:37;;;;;;;1.80;1.00;;;9.40;73.90;;;;;;5070705;28;20941;-74
2022/02/16 01:30:04;;;;;;;1.20;0.80;;;9.50;74.80;;;;;;5070175;28;20412;-74
2022/02/16 01:32:29;;;;;;;1.00;0.90;;;9.50;73.80;;;;;;5066092;28;20410;-74
2022/02/16 01:34:55;;;;;;;1.38;0.93;;;9.40;75.10;;;;;;5071940;28;20392;-73
2022/02/16 01:37:21;;;;;;;1.08;0.80;;;9.40;76.10;;;;;;5070988;28;20387;-74
2022/02/16 01:39:46;;;;;;;2.90;0.90;;;9.40;74.90;;;;;;5071845;28;20404;-74
2022/02/16 01:42:16;;;;;;;2.70;0.90;;;9.50;74.00;;;;;;5067457;28;20399;-74
2022/02/16 01:44:41;;;;;;;2.63;0.90;;;9.50;73.80;;;;;;5068905;28;20559;-74
2022/02/16 01:47:07;;;;;;;1.00;0.75;;;9.40;75.50;;;;;;5070968;28;20463;-74
2022/02/16 01:49:34;;;;;;;1.60;0.80;;;9.40;76.10;;;;;;5071960;28;20474;-74
2022/02/16 01:52:00;;;;;;;1.90;0.70;;;9.40;76.30;;;;;;5070641;28;20911;-72
2022/02/16 01:54:26;;;;;;;1.10;0.80;;;9.50;74.30;;;;;;5071394;28;20426;-72
2022/02/16 01:56:53;;;;;;;2.13;0.90;;;9.50;73.20;;;;;;5071618;28;20416;-72
2022/02/16 01:59:25;;;;;;;1.20;0.90;;;9.50;75.20;;;;;;5070434;28;20457;-72
2022/02/16 02:01:51;;;;;;;2.03;0.70;;;9.50;74.20;;;;;;5069568;28;20472;-73
2022/02/16 02:04:18;;;;;;;1.00;0.90;;;9.50;73.00;;;;;;5071328;28;20379;-74
2022/02/16 02:06:45;;;;;;;1.20;0.90;;;9.50;73.80;;;;;;5071182;28;20881;-73
2022/02/16 02:09:12;;;;;;;1.17;0.90;;;9.50;74.30;;;;;;5071337;28;20479;-73
2022/02/16 02:11:41;;;;;;;0.93;0.83;;;9.50;73.60;;;;;;5070349;28;20501;-72
2022/02/16 02:14:08;;;;;;;1.00;0.80;;;9.50;74.40;;;;;;5070386;28;20400;-73
2022/02/16 02:16:36;;;;;;;0.90;0.80;;;9.50;73.70;;;;;;5071078;28;20380;-73
2022/02/16 02:19:03;;;;;;;1.30;0.90;;;9.60;74.00;;;;;;5071642;28;20386;-73
2022/02/16 02:21:28;;;;;;;0.80;0.80;;;9.60;72.50;;;;;;5061686;28;20404;-73
2022/02/16 02:23:56;;;;;;;1.10;0.90;;;9.60;73.50;;;;;;5067487;28;20396;-73
2022/02/16 02:26:22;;;;;;;1.45;0.70;;;9.60;73.50;;;;;;5064545;28;20402;-74
2022/02/16 02:28:49;;;;;;;0.70;0.70;;;9.60;74.30;;;;;;5071294;28;20371;-74
2022/02/16 02:31:15;;;;;;;1.20;1.00;;;9.60;74.50;;;;;;5063770;28;20401;-74
2022/02/16 02:33:40;;;;;;;1.00;0.90;;;9.60;75.40;;;;;;5063917;28;20453;-74
2022/02/16 02:36:07;;;;;;;0.85;0.80;;;9.60;75.30;;;;;;5070346;28;20742;-72
2022/02/16 02:38:34;;;;;;;3.80;1.00;;;9.50;76.50;;;;;;5070939;28;20387;-73
2022/02/16 02:41:03;;;;;;;1.40;0.90;;;9.60;74.90;;;;;;5067504;28;20886;-73
2022/02/16 02:43:30;;;;;;;1.10;0.85;;;9.60;76.00;;;;;;5070286;28;20402;-73
2022/02/16 02:45:56;;;;;;;1.20;1.10;;;9.60;76.00;;;;;;5071023;28;20932;-73
2022/02/16 02:48:25;;;;;;;0.80;0.80;;;9.60;76.80;;;;;;5069020;28;20413;-73
2022/02/16 02:50:51;;;;;;;1.00;0.90;;;9.60;76.30;;;;;;5076873;28;20404;-73
2022/02/16 02:53:17;;;;;;;1.17;0.77;;;9.60;75.00;;;;;;5072801;28;20455;-74
2022/02/16 02:55:43;;;;;;;0.80;0.80;;;9.60;75.40;;;;;;5071812;28;20477;-74
2022/02/16 02:58:09;;;;;;;1.00;0.90;;;9.60;75.10;;;;;;5067423;28;20389;-73
2022/02/16 03:00:35;;;;;;;2.97;1.00;;;9.60;75.00;;;;;;5055250;28;20411;-74
2022/02/16 03:03:01;;;;;;;0.80;0.70;;;9.60;74.10;;;;;;5069704;28;20391;-74
2022/02/16 03:05:26;;;;;;;1.50;0.80;;;9.70;73.90;;;;;;5071038;28;20765;-74
2022/02/16 03:07:52;;;;;;;1.10;0.90;;;9.70;74.30;;;;;;5069828;28;20383;-73
2022/02/16 03:10:18;;;;;;;1.25;0.80;;;9.70;74.20;;;;;;5051038;28;20882;-73
2022/02/16 03:12:43;;;;;;;1.23;0.90;;;9.60;75.10;;;;;;5069266;28;20877;-74
2022/02/16 03:15:09;;;;;;;0.80;0.80;;;9.70;75.30;;;;;;5070581;28;20438;-74
2022/02/16 03:17:35;;;;;;;1.10;0.80;;;9.70;72.70;;;;;;5070588;28;20447;-74
2022/02/16 03:20:02;;;;;;;1.00;0.80;;;9.80;72.60;;;;;;5051629;28;20763;-73
2022/02/16 03:22:28;;;;;;;0.90;0.80;;;9.80;71.80;;;;;;5066138;28;20403;-73
2022/02/16 03:24:53;;;;;;;0.98;0.80;;;9.70;72.40;;;;;;5070658;28;20861;-74
2022/02/16 03:27:19;;;;;;;0.80;0.70;;;9.70;71.80;;;;;;5070446;28;20383;-74
2022/02/16 03:29:45;;;;;;;1.02;0.90;;;9.80;72.20;;;;;;5066436;28;20387;-74
2022/02/16 03:32:10;;;;;;;1.30;0.80;;;9.70;72.00;;;;;;5069342;28;20524;-74
2022/02/16 03:34:36;;;;;;;1.00;0.90;;;9.80;71.40;;;;;;5070753;28;20387;-74
2022/02/16 03:37:02;;;;;;;1.40;0.80;;;9.80;70.70;;;;;;5070402;28;20380;-74
2022/02/16 03:39:28;;;;;;;1.10;0.80;;;9.70;72.00;;;;;;5056702;28;20409;-74
2022/02/16 03:41:53;;;;;;;1.70;0.90;;;9.70;72.00;;;;;;5060385;28;20396;-74
2022/02/16 03:44:20;;;;;;;0.80;0.70;;;9.80;70.80;;;;;;5070566;28;20753;-73
2022/02/16 03:46:46;;;;;;;1.00;0.80;;;9.80;70.30;;;;;;5071154;28;20426;-73
2022/02/16 03:49:12;;;;;;;1.10;0.80;;;9.90;70.50;;;;;;5073341;28;20432;-73
2022/02/16 03:51:38;;;;;;;0.80;0.80;;;9.90;69.70;;;;;;5073309;28;20477;-73
2022/02/16 03:54:04;;;;;;;1.00;0.73;;;9.90;70.50;;;;;;5074873;28;20380;-74
2022/02/16 03:56:29;;;;;;;0.90;0.80;;;9.90;69.90;;;;;;5072860;28;20469;-74
2022/02/16 03:58:55;;;;;;;1.57;0.80;;;9.90;69.70;;;;;;5059837;28;20732;-72
2022/02/16 04:01:20;;;;;;;0.90;0.90;;;9.90;70.30;;;;;;5073015;28;20413;-73
2022/02/16 04:03:46;;;;;;;1.90;0.80;;;9.90;69.10;;;;;;5075213;28;20850;-74
2022/02/16 04:06:12;;;;;;;2.00;0.80;;;10.00;67.50;;;;;;5070943;28;20405;-74
2022/02/16 04:08:37;;;;;;;0.70;0.70;;;10.00;67.30;;;;;;5060439;28;20389;-74
2022/02/16 04:11:04;;;;;;;0.80;0.70;;;10.00;66.40;;;;;;5071167;28;20390;-75
2022/02/16 04:13:30;;;;;;;1.40;0.70;;;10.00;66.20;;;;;;5076953;28;20447;-74
2022/02/16 04:15:56;;;;;;;1.20;0.75;;;10.00;67.60;;;;;;5062290;28;20415;-74
2022/02/16 04:18:22;;;;;;;1.53;1.00;;;10.00;68.20;;;;;;5076232;28;20405;-75
2022/02/16 04:20:48;;;;;;;1.30;0.80;;;10.00;69.80;;;;;;5057883;28;20419;-75
2022/02/16 04:23:13;;;;;;;1.00;0.80;;;10.10;68.70;;;;;;5065830;28;20455;-75
2022/02/16 04:25:39;;;;;;;1.10;0.80;;;10.00;69.00;;;;;;5069061;28;20463;-75
2022/02/16 04:28:06;;;;;;;1.90;1.00;;;10.00;69.50;;;;;;5071208;28;20380;-75
2022/02/16 04:30:32;;;;;;;1.10;0.90;;;10.00;70.40;;;;;;5072795;28;20384;-76
2022/02/16 04:32:58;;;;;;;1.20;0.90;;;10.00;70.60;;;;;;5071301;28;20469;-74
2022/02/16 04:35:26;;;;;;;1.50;1.00;;;10.00;71.20;;;;;;5073953;28;20395;-75
2022/02/16 04:37:51;;;;;;;1.00;0.80;;;10.00;70.00;;;;;;5072931;28;20394;-75
2022/02/16 04:40:18;;;;;;;0.80;0.80;;;10.10;69.90;;;;;;5059029;28;20425;-75
2022/02/16 04:42:44;;;;;;;1.00;0.80;;;10.10;70.50;;;;;;5063719;28;20399;-76
2022/02/16 04:45:10;;;;;;;1.52;1.10;;;10.00;70.60;;;;;;5073574;28;20375;-76
2022/02/16 04:47:36;;;;;;;2.40;0.70;;;10.00;72.00;;;;;;5073554;28;20805;-76
2022/02/16 04:50:03;;;;;;;0.80;0.80;;;10.00;73.60;;;;;;5075308;28;20535;-76
2022/02/16 04:52:34;;;;;;;2.20;0.80;;;10.10;71.10;;;;;;5075181;28;20399;-76
2022/02/16 04:55:07;;;;;;;2.22;0.80;;;10.10;73.40;;;;;;5074242;28;20388;-76
2022/02/16 04:57:33;;;;;;;1.10;0.70;;;10.10;73.60;;;;;;5074542;28;20380;-76
2022/02/16 05:00:00;;;;;;;1.70;1.05;;;10.00;75.40;;;;;;5070263;28;20889;-76
2022/02/16 05:02:26;;;;;;;1.50;0.80;;;10.00;76.00;;;;;;5067701;28;20981;-76
2022/02/16 05:04:52;;;;;;;1.23;1.08;;;9.90;75.90;;;;;;5070055;28;20375;-75
2022/02/16 05:07:18;;;;;;;1.45;0.85;;;10.00;77.10;;;;;;5071592;28;20437;-74
2022/02/16 05:09:44;;;;;;;3.00;1.00;;;10.00;78.00;;;;;;5070033;28;20877;-75
2022/02/16 05:12:09;;;;;;;2.40;1.00;;;10.00;76.80;;;;;;5072331;28;20399;-74
2022/02/16 05:14:35;;;;;;;1.48;1.13;;;10.00;78.30;;;;;;5072710;28;20437;-73
2022/02/16 05:17:01;;;;;;;1.40;0.90;;;10.00;77.20;;;;;;5072493;28;20433;-73
2022/02/16 05:19:26;;;;;;;2.60;1.00;;;9.90;78.90;;;;;;5070060;28;20396;-74
2022/02/16 05:21:52;;;;;;;0.98;0.80;;;9.90;80.20;;;;;;5072276;28;20384;-74
2022/02/16 05:24:18;;;;;;;3.20;1.15;;;9.90;79.80;;;;;;5072439;28;20388;-74
2022/02/16 05:26:44;;;;;;;3.70;1.10;;;10.00;78.80;;;;;;5071576;28;20380;-74
2022/02/16 05:29:09;;;;;;;2.60;0.90;;;10.00;78.30;;;;;;5069714;28;20802;-74
2022/02/16 05:31:35;;;;;;;2.30;1.30;;;9.90;81.10;;;;;;5071716;28;20388;-73
2022/02/16 05:34:01;;;;;;;1.90;1.13;;;9.80;83.50;;;;;;5072410;28;20470;-74
2022/02/16 05:36:26;;;;;;;1.30;1.20;;;9.80;84.40;;;;;;5071241;28;20474;-73
2022/02/16 05:38:52;;;;;;;3.60;1.23;;;9.70;84.40;;;;;;5071921;28;20380;-74
2022/02/16 05:41:18;;;;;;;1.45;1.00;;;9.60;86.40;;;;;;5071974;28;20407;-73
2022/02/16 05:43:43;;;;;;;1.10;1.00;;;9.50;88.50;;;;;;5072304;28;20380;-75
2022/02/16 05:46:09;;;;;;;1.60;1.00;;;9.50;87.20;;;;;;5072215;28;20411;-75
2022/02/16 05:48:34;;;;;;;1.23;0.90;;;9.50;86.20;;;;;;5071305;28;20392;-74
2022/02/16 05:51:00;;;;;;;1.20;0.83;;;9.30;89.20;;;;;;5073550;28;20818;-74
2022/02/16 05:53:25;;;;;;;1.00;0.90;;;9.30;90.10;;;;;;5072203;28;20388;-74
2022/02/16 05:55:51;;;;;;;1.20;0.80;;;9.30;91.20;;;;;;5072155;28;20383;-74
2022/02/16 05:58:17;;;;;;;1.40;1.00;;;9.50;88.20;;;;;;5071475;28;20396;-74
2022/02/16 06:00:42;;;;;;;0.70;0.60;;;9.50;84.80;;;;;;5056951;28;20475;-73
2022/02/16 06:03:08;;;;;;;2.50;1.00;;;9.60;84.20;;;;;;5051628;28;20465;-74
2022/02/16 06:05:33;;;;;;;1.10;0.82;;;9.50;83.60;;;;;;5051750;28;20743;-74
2022/02/16 06:07:59;;;;;;;1.10;1.00;;;9.60;82.10;;;;;;5061809;28;20765;-75
2022/02/16 06:10:25;;;;;;;4.20;0.80;;;9.60;83.00;;;;;;5067157;28;20423;-75
2022/02/16 06:12:51;;;;;;;1.13;1.03;;;9.60;81.50;;;;;;5071511;28;20395;-74
2022/02/16 06:15:16;;;;;;;1.60;1.00;;;9.60;81.70;;;;;;5072034;28;20765;-74
2022/02/16 06:17:42;;;;;;;5.70;1.10;;;9.50;82.70;;;;;;5070623;28;20396;-73
2022/02/16 06:20:08;;;;;;;1.13;1.03;;;9.50;82.80;;;;;;5070748;28;20409;-74
2022/02/16 06:22:33;;;;;;;1.38;1.00;;;9.50;82.70;;;;;;5071934;28;20399;-74
2022/02/16 06:24:59;;;;;;;2.10;1.38;;;9.60;82.40;;;;;;5071666;28;20876;-74
2022/02/16 06:27:25;;;;;;;3.60;0.90;;;9.60;81.80;;;;;;5069800;28;20395;-73
2022/02/16 06:29:50;;;;;;;1.20;1.10;;;9.60;81.60;;;;;;5070800;28;20694;-74
2022/02/16 06:32:16;;;;;;;4.90;1.40;;;9.60;81.30;;;;;;5070860;28;20400;-74
2022/02/16 06:34:42;;;;;;;1.90;1.20;;;9.70;80.50;;;;;;5071311;28;20387;-74
2022/02/16 06:37:07;;;;;;;3.75;1.20;;;9.70;78.60;;;;;;5070075;28;20427;-75
2022/02/16 06:39:33;;;;;;;2.00;1.13;;;9.80;77.80;;;;;;5066574;28;20499;-72
2022/02/16 06:41:58;;;;;;;1.70;1.20;;;9.90;75.80;;;;;;5052251;28;20417;-73
2022/02/16 06:44:24;;;;;;;1.48;1.30;;;9.80;77.10;;;;;;5070525;28;20402;-74
2022/02/16 06:46:49;;;;;;;1.58;1.30;;;9.90;77.20;;;;;;5072648;28;20686;-73
2022/02/16 06:49:15;;;;;;;1.73;1.20;;;9.90;76.90;;;;;;5074308;28;20390;-74
2022/02/16 06:51:42;;;;;;;1.60;1.20;;;9.80;78.60;;;;;;5076875;28;20375;-75
2022/02/16 06:54:08;;;;;;;3.00;1.80;;;9.90;78.60;;;;;;5062809;28;20487;-73
2022/02/16 06:56:34;;;;;;;2.27;1.10;;;9.90;80.10;;;;;;5070919;28;20472;-74
2022/02/16 06:58:59;;;;;;;2.40;1.00;;;9.90;79.00;;;;;;5071648;28;20860;-74
2022/02/16 07:01:25;;;;;;;3.03;1.13;;;9.90;78.80;;;;;;5051971;28;20405;-74
2022/02/16 07:03:50;;;;;;;1.80;1.10;;;9.90;79.80;;;;;;5067523;28;20815;-74
2022/02/16 07:06:16;;;;;;;2.70;1.10;;;9.80;82.20;;;;;;5071054;28;20467;-75
2022/02/16 07:08:41;;;;;;;1.50;1.40;;;9.90;81.70;;;;;;5071062;28;20375;-73
2022/02/16 07:11:07;;;;;;;4.00;1.40;;;10.00;81.70;;;;;;5071235;28;20395;-74
2022/02/16 07:13:33;;;;;;;2.10;1.20;;;9.90;82.60;;;;;;5072870;28;20494;-74
2022/02/16 07:15:58;;;;;;;2.80;1.30;;;9.90;83.50;;;;;;5072654;28;20383;-74
2022/02/16 07:18:27;;;;;;;3.40;1.13;;;9.90;85.80;;;;;;5071203;28;20877;-75
2022/02/16 07:20:53;;;;;;;2.35;1.33;;;9.90;85.20;;;;;;5058039;28;20420;-74
2022/02/16 07:23:19;;;;;;;3.92;1.33;;;10.00;83.90;;;;;;5066461;28;20396;-74
2022/02/16 07:25:44;;;;;;;1.10;1.00;;;10.00;84.50;;;;;;5074782;28;20414;-73
2022/02/16 07:28:10;;;;;;;1.52;1.10;;;10.10;84.60;;;;;;5074511;28;20383;-73
2022/02/16 07:30:36;;;;;;;2.60;1.00;;;10.20;81.90;;;;;;5073911;28;20401;-72
2022/02/16 07:33:02;;;;;;;1.77;1.17;;;10.40;80.00;;;;;;5073771;28;20792;-73
2022/02/16 07:35:28;;;;;;;1.90;1.08;;;10.40;80.10;;;;;;5074838;28;20387;-73
2022/02/16 07:37:55;;;;;;;1.25;1.10;;;10.50;78.80;;;;;;5074861;28;20433;-74
2022/02/16 07:40:21;;;;;;;12.48;2.08;;;10.50;80.50;;;;;;5064148;28;20448;-73
2022/02/16 07:42:47;;;;;;;4.30;1.63;;;10.40;82.90;;;;;;5071787;28;20424;-73
2022/02/16 07:45:12;;;;;;;4.60;1.20;;;10.40;84.00;;;;;;5075164;28;20881;-73
2022/02/16 07:47:38;;;;;;;1.95;1.10;;;10.50;81.90;;;;;;5074989;28;20384;-75
2022/02/16 07:50:05;;;;;;;7.13;1.20;;;10.60;82.20;;;;;;5067719;28;20468;-72
2022/02/16 07:52:34;;;;;;;1.30;0.90;;;10.60;82.40;;;;;;5070860;28;20396;-73
2022/02/16 07:54:59;;;;;;;2.20;0.70;;;10.50;83.90;;;;;;5070900;28;20395;-72
2022/02/16 07:57:25;;;;;;;3.00;1.00;;;10.60;79.60;;;;;;5065721;28;20418;-73
2022/02/16 07:59:51;;;;;;;1.20;0.80;;;10.70;80.30;;;;;;5059348;28;20411;-73
2022/02/16 08:02:17;;;;;;;2.20;0.80;;;10.80;78.90;;;;;;5058020;28;20397;-73
2022/02/16 08:04:42;;;;;;;3.40;1.30;;;10.80;77.40;;;;;;5064244;28;20777;-73
2022/02/16 08:07:08;;;;;;;3.10;1.10;;;10.80;80.40;;;;;;5066062;28;20450;-72
2022/02/16 08:09:34;;;;;;;2.43;0.87;;;10.80;79.80;;;;;;5070486;28;20427;-73
2022/02/16 08:12:00;;;;;;;1.20;0.80;;;10.90;76.50;;;;;;5063721;28;21080;-72
2022/02/16 08:14:26;;;;;;;1.00;0.90;;;11.00;75.00;;;;;;5073623;28;20867;-73
2022/02/16 08:16:52;;;;;;;1.40;0.70;;;11.00;75.90;;;;;;5059011;28;20393;-73
2022/02/16 08:19:17;;;;;;;1.80;0.80;;;11.10;74.80;;;;;;5068269;28;20410;-72
2022/02/16 08:21:44;;;;;;;1.00;0.70;;;11.10;75.20;;;;;;5067125;28;20741;-73
2022/02/16 08:24:12;;;;;;;0.80;0.80;;;11.10;75.30;;;;;;5073600;28;20406;-76
2022/02/16 08:26:37;;;;;;;1.50;0.80;;;11.20;76.60;;;;;;5069815;28;20405;-77
2022/02/16 08:29:03;;;;;;;2.30;0.60;;;11.20;77.00;;;;;;5062541;28;20405;-75
2022/02/16 08:31:29;;;;;;;1.60;0.70;;;11.20;77.30;;;;;;5067355;28;20415;-74
2022/02/16 08:33:55;;;;;;;0.70;0.60;;;11.20;76.80;;;;;;5066034;28;20459;-74
2022/02/16 08:36:20;;;;;;;0.88;0.73;;;11.20;77.80;;;;;;5072784;28;20396;-74
2022/02/16 08:38:46;;;;;;;0.90;0.70;;;11.20;80.00;;;;;;5073604;28;20379;-73
2022/02/16 08:41:14;;;;;;;2.60;0.70;;;11.20;80.40;;;;;;5067964;28;20403;-73
2022/02/16 08:43:41;;;;;;;0.90;0.60;;;11.20;79.70;;;;;;5072809;28;20464;-72
2022/02/16 08:46:07;;;;;;;1.80;0.60;;;11.20;80.20;;;;;;5065261;28;20387;-74
2022/02/16 08:48:33;;;;;;;1.20;0.70;;;11.30;80.00;;;;;;5052790;28;20750;-73
2022/02/16 08:50:58;;;;;;;1.10;0.70;;;11.30;80.20;;;;;;5067612;28;20486;-72
2022/02/16 08:53:26;;;;;;;1.08;0.80;;;11.40;79.60;;;;;;5067280;28;20877;-73
2022/02/16 08:55:52;;;;;;;1.13;0.80;;;11.40;78.20;;;;;;5059345;28;20442;-72
2022/02/16 08:58:19;;;;;;;1.23;0.88;;;11.50;78.70;;;;;;5068669;28;20396;-74
2022/02/16 09:00:44;;;;;;;2.10;0.70;;;11.50;78.50;;;;;;5067313;28;20461;-74
2022/02/16 09:03:10;;;;;;;2.10;0.80;;;11.50;76.40;;;;;;5067695;28;20393;-77
2022/02/16 09:05:35;;;;;;;1.60;0.60;;;11.60;76.40;;;;;;5053624;28;20420;-73
2022/02/16 09:08:01;;;;;;;1.80;0.80;;;11.60;74.60;;;;;;5071280;28;20845;-74
2022/02/16 09:10:27;;;;;;;1.00;0.80;;;11.60;76.40;;;;;;5072491;28;20398;-74
2022/02/16 09:12:52;;;;;;;0.90;0.70;;;11.60;77.40;;;;;;5068375;28;20491;-73
2022/02/16 09:15:21;;;;;;;1.70;0.80;;;11.50;77.20;;;;;;5074116;28;20474;-74
2022/02/16 09:17:47;;;;;;;1.30;0.70;;;11.60;78.80;;;;;;5067501;28;20403;-74
2022/02/16 09:20:13;;;;;;;1.73;0.90;;;11.60;79.60;;;;;;5054021;28;20890;-74
2022/02/16 09:22:40;;;;;;;1.70;0.70;;;11.60;78.90;;;;;;5068825;28;20390;-74
2022/02/16 09:25:06;;;;;;;1.50;0.90;;;11.60;78.40;;;;;;5072048;28;20419;-75
2022/02/16 09:27:32;;;;;;;0.90;0.60;;;11.60;77.30;;;;;;5068923;28;20451;-74
2022/02/16 09:29:57;;;;;;;0.80;0.70;;;11.70;77.00;;;;;;5067398;28;20876;-74
2022/02/16 09:32:23;;;;;;;1.77;0.70;;;11.70;77.50;;;;;;5066842;28;20418;-74
2022/02/16 09:34:51;;;;;;;0.70;0.63;;;11.80;77.60;;;;;;5068302;28;20394;-74
2022/02/16 09:37:17;;;;;;;1.30;0.70;;;11.80;78.40;;;;;;5067969;28;20408;-73
2022/02/16 09:39:43;;;;;;;1.00;0.80;;;11.80;81.90;;;;;;5068444;28;20427;-74
2022/02/16 09:42:09;;;;;;;1.10;0.90;;;11.70;83.20;;;;;;5064264;28;20485;-75
2022/02/16 09:44:58;;;;;;;1.50;0.90;;;11.70;86.10;;;;;;5068167;28;20392;-73
2022/02/16 09:47:25;;;;;;;2.10;1.10;;;11.70;86.10;;;;;;5065213;28;20395;-75
2022/02/16 09:49:51;;;;;;;1.00;0.90;;;11.80;86.40;;;;;;5072948;28;20860;-75
2022/02/16 09:52:19;;;;;;;0.80;0.77;;;11.80;86.30;;;;;;5061156;28;20404;-75
2022/02/16 09:54:46;;;;;;;0.90;0.80;;;11.80;86.00;;;;;;5067845;28;20399;-75
2022/02/16 09:57:12;;;;;;;1.00;0.90;;;11.80;87.20;;;;;;5066780;28;20987;-75
2022/02/16 09:59:37;;;;;;;1.05;0.95;;;11.80;87.10;;;;;;5068913;28;20391;-74
2022/02/16 10:02:08;;;;;;;3.50;0.80;;;11.80;86.70;;;;;;5063423;28;20530;-74
2022/02/16 10:04:36;;;;;;;1.20;0.82;;;11.90;86.30;;;;;;5069220;28;20403;-75
2022/02/16 10:07:19;;;;;;;2.10;0.90;;;12.00;84.40;;;;;;5067620;28;20400;-74
2022/02/16 10:09:45;;;;;;;1.80;1.00;;;12.10;82.70;;;;;;5056406;28;20405;-75
2022/02/16 10:12:10;;;;;;;1.70;0.95;;;12.10;82.50;;;;;;5061671;28;20391;-74
2022/02/16 10:14:38;;;;;;;1.10;1.00;;;12.10;80.70;;;;;;5072059;28;20407;-77
2022/02/16 10:17:26;;;;;;;4.20;1.00;;;12.30;79.80;;;;;;5071807;28;20505;-74
2022/02/16 10:19:57;;;;;;;2.17;1.17;;;12.40;78.30;;;;;;5073510;28;20723;-74
2022/02/16 10:22:37;;;;;;;3.35;1.23;;;12.50;76.30;;;;;;5067280;28;20402;-75
2022/02/16 10:25:15;;;;;;;3.30;0.95;;;12.60;76.00;;;;;;5070595;28;20415;-75
2022/02/16 10:28:05;;;;;;;2.20;0.70;;;12.70;74.60;;;;;;5065353;28;20397;-74
2022/02/16 10:30:31;;;;;;;1.10;0.90;;;12.70;73.60;;;;;;5060514;28;20483;-74
2022/02/16 10:33:30;;;;;;;2.88;0.93;;;12.80;75.10;;;;;;5068429;28;20403;-75
2022/02/16 10:36:09;;;;;;;1.58;0.90;;;12.80;75.20;;;;;;5059848;28;20539;-75
2022/02/16 10:39:10;;;;;;;1.40;1.10;;;12.80;74.90;;;;;;5069516;28;20769;-75
2022/02/16 10:41:44;;;;;;;3.10;1.00;;;12.70;78.40;;;;;;4977863;28;20449;-74
2022/02/16 10:44:16;;;;;;;1.80;1.00;;;12.80;77.50;;;;;;5052026;28;20403;-73
2022/02/16 10:46:42;;;;;;;1.40;0.93;;;12.80;78.10;;;;;;5062030;28;20492;-73
2022/02/16 10:49:15;;;;;;;3.60;1.10;;;12.80;77.50;;;;;;5063428;28;20476;-75
2022/02/16 10:51:42;;;;;;;2.70;0.90;;;12.90;79.00;;;;;;5063197;28;20418;-73
2022/02/16 10:54:19;;;;;;;1.40;1.00;;;12.80;80.80;;;;;;5068138;28;20398;-74
2022/02/16 10:56:48;;;;;;;1.50;0.90;;;12.90;80.90;;;;;;5068492;28;20486;-73
2022/02/16 10:59:14;;;;;;;2.05;1.05;;;12.90;80.10;;;;;;5065073;28;20408;-75
2022/02/16 11:01:41;;;;;;;1.50;1.10;;;12.90;80.80;;;;;;5064610;28;20411;-75
2022/02/16 11:04:09;;;;;;;3.60;1.45;;;12.90;81.80;;;;;;5065011;28;20403;-75
2022/02/16 11:06:38;;;;;;;1.10;1.00;;;13.00;81.80;;;;;;5067803;28;20453;-75
2022/02/16 11:09:05;;;;;;;1.60;1.05;;;12.90;81.90;;;;;;5059796;28;20885;-75
2022/02/16 11:11:31;;;;;;;34.08;18.08;;;13.10;80.60;;;;;;5062589;28;20869;-74
2022/02/16 11:13:59;;;;;;;1.93;1.20;;;13.10;81.60;;;;;;5068405;28;20399;-76
2022/02/16 11:16:25;;;;;;;1.40;1.00;;;13.40;78.90;;;;;;5069791;28;20403;-76
2022/02/16 11:18:51;;;;;;;2.20;1.33;;;13.60;75.10;;;;;;5064904;28;20424;-76
2022/02/16 11:21:19;;;;;;;1.40;1.20;;;13.80;72.30;;;;;;5062602;28;20966;-76
2022/02/16 11:23:50;;;;;;;4.60;1.10;;;13.80;72.20;;;;;;5069162;28;20396;-75
2022/02/16 11:26:35;;;;;;;1.40;1.30;;;13.90;69.80;;;;;;5053812;28;21132;-74
2022/02/16 11:29:07;;;;;;;2.70;1.90;;;13.70;73.60;;;;;;5063456;28;20396;-77
2022/02/16 11:31:37;;;;;;;2.60;1.60;;;13.60;76.60;;;;;;5064556;28;20460;-76
2022/02/16 11:34:13;;;;;;;1.70;1.50;;;13.60;77.50;;;;;;5069432;28;20568;-76
2022/02/16 11:37:02;;;;;;;1.40;1.10;;;13.70;76.90;;;;;;5070757;28;20405;-74
2022/02/16 11:39:49;;;;;;;2.17;1.40;;;13.60;77.70;;;;;;5067044;28;20407;-75
2022/02/16 11:42:36;;;;;;;1.30;1.20;;;13.40;80.30;;;;;;5058876;28;20510;-75
2022/02/16 11:45:08;;;;;;;3.50;1.40;;;13.40;80.00;;;;;;5060815;28;20467;-74
2022/02/16 11:47:33;;;;;;;1.60;1.50;;;13.40;83.40;;;;;;5061042;28;20413;-76
2022/02/16 11:50:00;;;;;;;1.70;1.30;;;13.50;82.20;;;;;;5067130;28;20399;-76
2022/02/16 11:52:50;;;;;;;3.53;2.00;;;13.50;80.20;;;;;;5054817;28;20407;-76
2022/02/16 11:55:26;;;;;;;1.70;1.40;;;13.50;80.80;;;;;;5060729;28;20396;-76
2022/02/16 11:57:54;;;;;;;5.33;2.10;;;13.50;80.60;;;;;;5066760;28;20392;-75
2022/02/16 12:00:20;;;;;;;2.30;2.10;;;13.40;81.90;;;;;;5062876;28;20776;-75
2022/02/16 12:02:58;;;;;;;2.60;1.97;;;13.50;80.70;;;;;;5052703;28;20477;-74
2022/02/16 12:05:49;;;;;;;2.80;1.77;;;13.50;81.50;;;;;;5069088;28;20388;-77
2022/02/16 12:08:37;;;;;;;2.60;1.60;;;13.60;79.40;;;;;;5059027;28;21005;-73
2022/02/16 12:11:08;;;;;;;1.98;1.83;;;13.60;79.30;;;;;;5026546;28;20401;-73
2022/02/16 12:13:43;;;;;;;4.00;1.80;;;13.50;81.20;;;;;;5060373;28;20394;-72
2022/02/16 12:16:10;;;;;;;2.33;1.50;;;13.40;84.20;;;;;;5059568;28;20504;-73
2022/02/16 12:18:38;;;;;;;2.22;1.90;;;13.40;83.90;;;;;;5056600;28;20390;-73
2022/02/16 12:21:08;;;;;;;3.00;1.42;;;13.40;85.60;;;;;;5065376;28;20422;-75
2022/02/16 12:23:48;;;;;;;2.13;1.80;;;13.50;81.40;;;;;;5057290;28;20393;-73
2022/02/16 12:26:17;;;;;;;2.05;1.85;;;13.60;80.60;;;;;;5065821;28;20442;-73
2022/02/16 12:28:58;;;;;;;2.73;1.30;;;13.70;79.30;;;;;;5062873;28;20405;-74
2022/02/16 12:31:27;;;;;;;2.38;1.70;;;13.70;79.70;;;;;;5065928;28;20416;-73
2022/02/16 12:34:06;;;;;;;1.77;1.55;;;13.70;81.10;;;;;;5067052;28;20527;-72
2022/02/16 12:36:34;;;;;;;1.50;1.40;;;13.70;81.30;;;;;;5064949;28;20826;-72
2022/02/16 12:39:03;;;;;;;1.80;1.50;;;13.70;81.50;;;;;;5062865;28;20399;-73
2022/02/16 12:41:29;;;;;;;1.50;1.40;;;13.90;78.30;;;;;;5060416;28;20408;-72
2022/02/16 12:44:01;;;;;;;3.35;1.50;;;14.00;75.40;;;;;;5059669;28;20394;-74
2022/02/16 12:46:30;;;;;;;1.30;1.20;;;14.10;74.20;;;;;;5067465;28;20502;-76
2022/02/16 12:48:56;;;;;;;1.37;1.27;;;14.20;77.00;;;;;;5064789;28;20389;-76
2022/02/16 12:51:27;;;;;;;2.25;1.30;;;14.10;78.40;;;;;;5075265;28;20401;-75
2022/02/16 12:53:53;;;;;;;1.50;1.40;;;14.00;79.50;;;;;;5068718;28;20399;-75